Terminal Aerodrome Forecast
Issued by NWS

Home | Current Version | Previous Version | Text Only | Print | Product List | Glossary On
Versions: 1 2 3 4 5 6 7 8 9 10 11 12 13 14 15 16 17 18 19 20 21 22 23 24 25 26 27 28 29 30 31 32 33 34 35 36 37 38 39 40 41 42 43 44
961
FTUS44 KHGX 141740
TAFCXO
TAF
KCXO 141740Z 1418/1518 20013G19KT P6SM SCT035 BKN045
     FM150100 15008KT P6SM SCT025
     FM150400 16005KT P6SM SCT015 BKN025
     FM150900 19005KT 4SM BR BKN015
     FM151400 22010G16KT 4SM BR VCSH BKN015=

USA.gov is the U.S. government's official web portal to all federal, state and local government web resources and services.